Time;durP1;ratioP1;P1;durP2;ratioP2;P2;SDS_P1;SDS_P2;PMS_P1;PMS_P2;Temp;Humidity;BMP_temperature;BMP_pressure;BME280_temperature;BME280_humidity;BME280_pressure;Samples;Min_cycle;Max_cycle;Signal;HPM_P1;HPM_P2
2023/03/16 00:00:12;;;;;;;2.10;1.30;;;10.30;99.90;;;;;;5052841;28;20052;-63
2023/03/16 00:02:40;;;;;;;2.65;1.42;;;10.40;99.90;;;;;;5052785;28;20043;-63
2023/03/16 00:05:07;;;;;;;2.67;1.40;;;10.40;99.90;;;;;;5052633;28;20036;-63
2023/03/16 00:07:33;;;;;;;2.63;1.40;;;10.40;99.90;;;;;;5051089;28;20071;-63
2023/03/16 00:09:59;;;;;;;2.65;1.30;;;10.30;99.90;;;;;;5053006;28;20032;-63
2023/03/16 00:12:25;;;;;;;2.08;1.15;;;10.20;99.90;;;;;;5052644;28;20048;-63
2023/03/16 00:14:50;;;;;;;1.27;1.00;;;10.20;99.90;;;;;;5052731;28;20029;-63
2023/03/16 00:17:19;;;;;;;1.83;1.30;;;10.40;99.90;;;;;;5052608;28;20064;-63
2023/03/16 00:19:56;;;;;;;1.95;1.23;;;10.40;99.90;;;;;;5052280;28;20521;-63
2023/03/16 00:22:29;;;;;;;2.35;1.20;;;10.30;99.90;;;;;;5052219;28;20035;-63
2023/03/16 00:24:56;;;;;;;3.22;1.40;;;10.20;99.90;;;;;;5052938;28;20436;-63
2023/03/16 00:27:23;;;;;;;2.53;1.40;;;10.30;99.90;;;;;;5052363;28;20120;-63
2023/03/16 00:29:54;;;;;;;2.35;1.20;;;10.30;99.90;;;;;;5052424;28;20489;-63
2023/03/16 00:32:30;;;;;;;2.95;1.50;;;10.30;99.90;;;;;;5052634;28;20024;-62
2023/03/16 00:34:56;;;;;;;2.88;1.73;;;10.30;99.90;;;;;;5051945;28;20032;-63
2023/03/16 00:37:25;;;;;;;2.70;1.27;;;10.20;99.90;;;;;;5052103;28;20091;-63
2023/03/16 00:39:54;;;;;;;3.00;1.20;;;10.20;99.90;;;;;;5052630;28;20104;-63
2023/03/16 00:42:26;;;;;;;2.67;1.10;;;10.30;99.90;;;;;;5052260;28;20032;-63
2023/03/16 00:44:56;;;;;;;4.47;1.35;;;10.20;99.90;;;;;;5052023;28;20028;-63
2023/03/16 00:47:27;;;;;;;1.70;1.10;;;10.20;99.90;;;;;;5052492;28;20055;-63
2023/03/16 00:49:55;;;;;;;1.90;1.00;;;10.20;99.90;;;;;;5051585;28;20024;-63
2023/03/16 00:52:22;;;;;;;2.92;1.30;;;10.00;99.90;;;;;;5052011;28;20029;-63
2023/03/16 00:54:51;;;;;;;2.40;1.23;;;9.90;99.90;;;;;;5052011;28;20017;-64
2023/03/16 00:57:17;;;;;;;2.90;1.20;;;10.00;99.90;;;;;;5051966;28;20492;-63
2023/03/16 00:59:46;;;;;;;3.72;1.35;;;10.10;99.90;;;;;;5052421;28;20024;-63
2023/03/16 01:02:14;;;;;;;1.95;1.00;;;10.10;99.90;;;;;;5051853;28;20489;-64
2023/03/16 01:04:40;;;;;;;1.98;1.10;;;9.90;99.90;;;;;;5051634;28;20565;-64
2023/03/16 01:07:12;;;;;;;2.45;1.30;;;10.00;99.90;;;;;;5052244;28;20117;-63
2023/03/16 01:09:39;;;;;;;2.00;1.30;;;9.80;99.90;;;;;;5051593;28;20032;-63
2023/03/16 01:12:07;;;;;;;1.95;1.10;;;9.90;99.90;;;;;;5052114;28;20544;-64
2023/03/16 01:14:34;;;;;;;2.70;1.23;;;9.80;99.90;;;;;;5051956;28;20112;-64
2023/03/16 01:17:01;;;;;;;1.95;1.13;;;9.80;99.90;;;;;;5051666;28;20044;-63
2023/03/16 01:19:27;;;;;;;1.83;1.10;;;9.80;99.90;;;;;;5051817;28;20067;-63
2023/03/16 01:21:53;;;;;;;2.42;1.10;;;9.90;99.90;;;;;;5051787;28;20108;-63
2023/03/16 01:24:19;;;;;;;2.08;1.30;;;9.70;99.90;;;;;;5051658;28;20033;-63
2023/03/16 01:26:45;;;;;;;1.80;1.20;;;9.80;99.90;;;;;;5051776;28;20370;-63
2023/03/16 01:29:11;;;;;;;2.13;1.30;;;9.80;99.90;;;;;;5052210;28;20029;-63
2023/03/16 01:31:38;;;;;;;2.00;1.00;;;9.70;99.90;;;;;;5051614;28;20044;-63
2023/03/16 01:34:04;;;;;;;3.53;1.30;;;9.60;99.90;;;;;;5054445;28;20040;-63
2023/03/16 01:36:32;;;;;;;1.80;1.10;;;9.70;99.90;;;;;;5055957;28;20029;-63
2023/03/16 01:38:59;;;;;;;2.67;1.20;;;9.60;99.90;;;;;;5055599;28;20411;-63
2023/03/16 01:41:25;;;;;;;2.75;1.10;;;9.60;99.90;;;;;;5055629;28;20025;-63
2023/03/16 01:43:57;;;;;;;2.90;1.10;;;9.60;99.90;;;;;;5055451;28;20447;-63
2023/03/16 01:46:26;;;;;;;2.63;1.20;;;9.60;99.90;;;;;;5055682;28;20534;-63
2023/03/16 01:49:12;;;;;;;2.25;1.30;;;9.60;99.90;;;;;;5054967;28;20036;-63
2023/03/16 01:52:11;;;;;;;2.95;1.05;;;9.50;99.90;;;;;;5055536;28;20422;-63
2023/03/16 01:54:42;;;;;;;3.75;1.17;;;9.50;99.90;;;;;;5050588;28;20068;-64
2023/03/16 01:57:13;;;;;;;2.67;1.20;;;9.50;99.90;;;;;;5055144;28;20571;-63
2023/03/16 01:59:52;;;;;;;2.25;1.30;;;9.40;99.90;;;;;;5055312;28;20052;-63
2023/03/16 02:02:20;;;;;;;2.50;1.38;;;9.30;99.90;;;;;;5053546;28;20029;-64
2023/03/16 02:05:03;;;;;;;2.42;1.23;;;9.30;99.90;;;;;;5055483;28;20096;-63
2023/03/16 02:07:33;;;;;;;2.58;1.20;;;9.20;99.90;;;;;;5055146;28;20607;-64
2023/03/16 02:10:01;;;;;;;2.25;1.13;;;9.30;99.90;;;;;;5055024;28;20057;-63
2023/03/16 02:12:28;;;;;;;2.15;1.08;;;9.20;99.90;;;;;;5054688;28;20064;-61
2023/03/16 02:14:53;;;;;;;2.58;1.13;;;9.10;99.90;;;;;;5054996;28;20040;-63
2023/03/16 02:17:25;;;;;;;2.35;1.00;;;9.10;99.90;;;;;;5054667;28;20033;-63
2023/03/16 02:20:07;;;;;;;3.25;1.30;;;9.20;99.90;;;;;;5054739;28;20024;-63
2023/03/16 02:22:35;;;;;;;2.75;1.40;;;9.20;99.90;;;;;;5054149;28;20033;-63
2023/03/16 02:25:01;;;;;;;4.40;1.30;;;9.10;99.90;;;;;;5055094;28;20389;-63
2023/03/16 02:27:53;;;;;;;2.75;1.23;;;9.10;99.90;;;;;;5054670;28;20155;-63
2023/03/16 02:30:20;;;;;;;2.28;1.17;;;9.10;99.90;;;;;;5054231;28;20086;-63
2023/03/16 02:32:50;;;;;;;3.25;1.30;;;9.10;99.90;;;;;;5054325;28;20107;-63
2023/03/16 02:35:16;;;;;;;2.08;1.13;;;8.90;99.90;;;;;;5054845;28;20088;-64
2023/03/16 02:37:42;;;;;;;2.20;1.30;;;8.90;99.90;;;;;;5054491;28;20124;-63
2023/03/16 02:40:27;;;;;;;2.67;1.30;;;8.80;99.90;;;;;;5054435;28;20025;-63
2023/03/16 02:43:12;;;;;;;2.55;1.30;;;8.70;99.90;;;;;;5054420;28;20033;-63
2023/03/16 02:45:45;;;;;;;2.17;1.00;;;8.70;99.90;;;;;;5053934;28;20047;-63
2023/03/16 02:48:42;;;;;;;3.92;1.45;;;8.70;99.90;;;;;;5054444;28;20051;-63
2023/03/16 02:51:08;;;;;;;1.73;1.13;;;8.60;99.90;;;;;;5054850;28;20024;-63
2023/03/16 02:53:34;;;;;;;3.05;1.27;;;8.50;99.90;;;;;;5054247;28;20424;-63
2023/03/16 02:56:01;;;;;;;3.22;1.10;;;8.60;99.90;;;;;;5052899;28;20115;-63
2023/03/16 02:58:28;;;;;;;2.58;1.20;;;8.50;99.90;;;;;;5054116;28;20045;-63
2023/03/16 03:00:54;;;;;;;4.57;1.55;;;8.50;99.90;;;;;;5053678;28;20037;-63
2023/03/16 03:03:20;;;;;;;1.88;1.10;;;8.50;99.90;;;;;;5053976;28;20148;-63
2023/03/16 03:05:46;;;;;;;2.42;1.40;;;8.30;99.90;;;;;;5053837;28;20033;-63
2023/03/16 03:08:12;;;;;;;3.08;1.42;;;8.40;99.90;;;;;;5052592;28;20025;-63
2023/03/16 03:10:38;;;;;;;3.08;1.20;;;8.30;99.90;;;;;;5053885;28;20021;-64
2023/03/16 03:13:06;;;;;;;2.42;1.30;;;8.20;99.90;;;;;;5054135;28;20045;-64
2023/03/16 03:15:32;;;;;;;2.95;1.60;;;8.30;99.90;;;;;;5053432;28;20104;-64
2023/03/16 03:17:58;;;;;;;3.28;1.50;;;8.20;99.90;;;;;;5053616;28;20075;-64
2023/03/16 03:20:24;;;;;;;2.88;1.60;;;8.00;99.90;;;;;;5053674;28;20493;-63
2023/03/16 03:22:51;;;;;;;2.40;1.20;;;8.20;99.90;;;;;;5053663;28;20466;-63
2023/03/16 03:25:18;;;;;;;1.73;1.10;;;8.00;99.90;;;;;;5054126;28;20025;-64
2023/03/16 03:27:45;;;;;;;2.20;1.30;;;8.00;99.90;;;;;;5053757;28;20123;-64
2023/03/16 03:30:14;;;;;;;2.53;1.38;;;7.90;99.90;;;;;;5053088;28;20027;-64
2023/03/16 03:32:40;;;;;;;2.47;1.20;;;8.10;99.90;;;;;;5053519;28;20035;-64
2023/03/16 03:35:07;;;;;;;2.78;1.35;;;8.00;99.90;;;;;;5053679;28;20477;-63
2023/03/16 03:37:32;;;;;;;3.17;1.50;;;8.10;99.90;;;;;;5052947;28;20111;-64
2023/03/16 03:39:58;;;;;;;5.30;1.30;;;7.90;99.90;;;;;;5053799;28;20155;-63
2023/03/16 03:42:24;;;;;;;3.22;1.23;;;8.00;99.90;;;;;;5053396;28;20037;-63
2023/03/16 03:44:51;;;;;;;3.40;1.63;;;7.90;99.90;;;;;;5052845;28;20096;-63
2023/03/16 03:47:17;;;;;;;2.97;1.48;;;7.90;99.90;;;;;;5053185;28;20049;-64
2023/03/16 03:49:43;;;;;;;3.63;1.40;;;8.00;99.90;;;;;;5053459;28;20032;-63
2023/03/16 03:52:09;;;;;;;2.72;1.25;;;8.00;99.90;;;;;;5051796;28;20388;-63
2023/03/16 03:54:36;;;;;;;3.28;1.30;;;7.90;99.90;;;;;;5053085;28;20017;-63
2023/03/16 03:57:02;;;;;;;3.05;1.13;;;7.90;99.90;;;;;;5052348;28;20075;-64
2023/03/16 03:59:28;;;;;;;1.83;1.10;;;7.90;99.90;;;;;;5052639;28;20477;-64
2023/03/16 04:01:53;;;;;;;3.10;1.30;;;7.90;99.90;;;;;;5052848;28;20029;-64
2023/03/16 04:04:19;;;;;;;2.72;1.10;;;7.80;99.90;;;;;;5052795;28;20025;-64
2023/03/16 04:06:45;;;;;;;2.70;1.20;;;8.00;99.90;;;;;;5053012;28;20512;-63
2023/03/16 04:09:11;;;;;;;2.25;1.23;;;8.00;99.90;;;;;;5052544;28;20025;-63
2023/03/16 04:11:37;;;;;;;2.47;1.42;;;8.00;99.90;;;;;;5052522;28;20500;-63
2023/03/16 04:14:03;;;;;;;3.17;1.17;;;8.00;99.90;;;;;;5052593;28;20040;-64
2023/03/16 04:16:29;;;;;;;2.28;1.08;;;8.00;99.90;;;;;;5052700;28;20404;-63
2023/03/16 04:18:56;;;;;;;2.03;1.10;;;8.00;99.90;;;;;;5052655;28;20032;-64
2023/03/16 04:21:23;;;;;;;3.40;1.30;;;8.00;99.90;;;;;;5052698;28;20032;-63
2023/03/16 04:23:53;;;;;;;2.15;1.10;;;7.80;99.90;;;;;;5052591;28;20028;-63
2023/03/16 04:26:21;;;;;;;4.00;1.33;;;7.90;99.90;;;;;;5050937;28;20397;-63
2023/03/16 04:28:47;;;;;;;2.60;1.30;;;7.90;99.90;;;;;;5052358;28;20055;-63
2023/03/16 04:31:13;;;;;;;2.25;1.20;;;8.20;99.90;;;;;;5052428;28;20056;-63
2023/03/16 04:33:41;;;;;;;2.33;0.95;;;8.00;99.90;;;;;;5052396;28;20025;-63
2023/03/16 04:36:07;;;;;;;2.42;1.10;;;8.10;99.90;;;;;;5052201;28;20032;-63
2023/03/16 04:38:34;;;;;;;1.73;1.20;;;8.10;99.90;;;;;;5052356;28;20036;-63
2023/03/16 04:41:01;;;;;;;3.63;1.10;;;8.00;99.90;;;;;;5052270;28;20025;-63
2023/03/16 04:43:27;;;;;;;2.60;1.20;;;7.80;99.90;;;;;;5052065;28;20052;-63
2023/03/16 04:45:53;;;;;;;3.55;1.10;;;7.90;99.90;;;;;;5052167;28;20025;-63
2023/03/16 04:48:19;;;;;;;2.28;1.10;;;8.00;99.90;;;;;;5052382;28;20017;-63
2023/03/16 04:50:46;;;;;;;2.17;1.10;;;7.80;99.90;;;;;;5051990;28;20029;-63
2023/03/16 04:53:12;;;;;;;2.72;1.10;;;8.00;99.90;;;;;;5052670;28;20028;-63
2023/03/16 04:55:38;;;;;;;3.53;1.23;;;7.80;99.90;;;;;;5051748;28;20394;-63
2023/03/16 04:58:03;;;;;;;2.22;1.35;;;7.70;99.90;;;;;;5051813;28;20036;-63
2023/03/16 05:00:29;;;;;;;3.08;1.00;;;7.80;99.90;;;;;;5052057;28;20396;-63
2023/03/16 05:02:55;;;;;;;2.75;1.13;;;7.90;99.90;;;;;;5051875;28;20036;-63
2023/03/16 05:05:21;;;;;;;3.45;1.10;;;7.60;99.90;;;;;;5050846;28;20021;-63
2023/03/16 05:07:47;;;;;;;6.78;1.55;;;7.80;99.90;;;;;;5052460;28;20092;-63
2023/03/16 05:10:17;;;;;;;3.65;1.10;;;7.60;99.90;;;;;;5055613;28;20029;-64
2023/03/16 05:12:43;;;;;;;3.03;1.20;;;7.70;99.90;;;;;;5055812;28;20466;-63
2023/03/16 05:15:09;;;;;;;3.83;1.20;;;7.80;99.90;;;;;;5056146;28;20033;-63
2023/03/16 05:17:35;;;;;;;3.17;1.15;;;7.80;99.90;;;;;;5056089;28;20074;-64
2023/03/16 05:20:05;;;;;;;1.90;1.10;;;7.70;99.90;;;;;;5056088;28;20447;-63
2023/03/16 05:22:34;;;;;;;2.35;1.20;;;7.70;99.90;;;;;;5055835;28;20021;-63
2023/03/16 05:25:02;;;;;;;2.80;1.40;;;7.90;99.90;;;;;;5056022;28;20021;-63
2023/03/16 05:27:28;;;;;;;2.20;1.30;;;7.80;99.90;;;;;;5055864;28;20055;-63
2023/03/16 05:29:54;;;;;;;2.67;1.20;;;7.70;99.90;;;;;;5055757;28;20017;-63
2023/03/16 05:32:20;;;;;;;2.10;1.17;;;7.60;99.90;;;;;;5055936;28;20033;-63
2023/03/16 05:34:46;;;;;;;2.22;1.30;;;7.80;99.90;;;;;;5055707;28;20045;-63
2023/03/16 05:37:12;;;;;;;2.67;1.20;;;7.60;99.90;;;;;;5055916;28;20131;-63
2023/03/16 05:39:38;;;;;;;1.70;0.95;;;7.80;99.90;;;;;;5055313;28;20078;-63
2023/03/16 05:42:04;;;;;;;1.85;1.05;;;7.90;99.90;;;;;;5055517;28;20036;-63
2023/03/16 05:44:31;;;;;;;3.20;1.20;;;8.00;99.90;;;;;;5054474;28;20020;-63
2023/03/16 05:46:57;;;;;;;1.88;1.00;;;8.00;99.90;;;;;;5055673;28;20025;-63
2023/03/16 05:49:22;;;;;;;1.98;1.13;;;7.90;99.90;;;;;;5055499;28;20021;-63
2023/03/16 05:51:51;;;;;;;3.25;1.20;;;7.90;99.90;;;;;;5055431;28;20103;-63
2023/03/16 05:54:17;;;;;;;2.25;1.10;;;7.60;99.90;;;;;;5055023;28;20081;-63
2023/03/16 05:56:43;;;;;;;3.60;1.00;;;8.00;99.90;;;;;;5055144;28;20104;-63
2023/03/16 05:59:08;;;;;;;3.25;1.05;;;7.90;99.90;;;;;;5055208;28;20087;-63
2023/03/16 06:01:34;;;;;;;3.00;1.35;;;7.90;99.90;;;;;;5054061;28;20385;-63
2023/03/16 06:04:01;;;;;;;1.80;1.00;;;8.20;99.90;;;;;;5055572;28;20032;-63
2023/03/16 06:06:27;;;;;;;3.58;1.30;;;8.00;99.90;;;;;;5055488;28;20037;-63
2023/03/16 06:08:53;;;;;;;1.70;1.13;;;8.00;99.90;;;;;;5054489;28;20025;-63
2023/03/16 06:11:19;;;;;;;2.63;1.23;;;7.90;99.90;;;;;;5055001;28;20107;-63
2023/03/16 06:13:44;;;;;;;2.22;1.02;;;7.90;99.90;;;;;;5054881;28;20644;-63
2023/03/16 06:16:13;;;;;;;5.13;1.48;;;8.00;99.90;;;;;;5054946;28;20087;-63
2023/03/16 06:18:39;;;;;;;3.85;1.30;;;8.00;99.90;;;;;;5054910;28;20033;-63
2023/03/16 06:21:04;;;;;;;2.85;1.38;;;8.10;99.90;;;;;;5054802;28;20381;-63
2023/03/16 06:23:30;;;;;;;2.35;1.10;;;8.20;99.90;;;;;;5054586;28;20021;-63
2023/03/16 06:25:58;;;;;;;1.90;1.00;;;8.00;99.90;;;;;;5054708;28;20021;-63
2023/03/16 06:28:24;;;;;;;3.70;1.30;;;8.20;99.90;;;;;;5054675;28;20025;-63
2023/03/16 06:30:53;;;;;;;3.25;1.17;;;8.10;99.90;;;;;;5054909;28;20551;-63
2023/03/16 06:33:19;;;;;;;3.17;1.30;;;8.20;99.90;;;;;;5054459;28;20025;-63
2023/03/16 06:35:47;;;;;;;2.78;1.83;;;9.90;99.90;;;;;;5054535;28;20033;-63
2023/03/16 06:38:13;;;;;;;3.00;1.33;;;11.10;99.90;;;;;;5053876;28;20040;-63
2023/03/16 06:40:39;;;;;;;3.42;1.27;;;11.90;99.90;;;;;;5054753;28;20029;-63
2023/03/16 06:43:05;;;;;;;3.53;1.13;;;13.40;99.90;;;;;;5054449;28;20501;-63
2023/03/16 06:45:31;;;;;;;3.10;1.23;;;14.00;99.90;;;;;;5054352;28;20025;-63
2023/03/16 06:47:56;;;;;;;3.90;1.13;;;14.80;99.90;;;;;;5054445;28;20396;-63
2023/03/16 06:50:22;;;;;;;3.53;1.20;;;16.10;99.90;;;;;;5054395;28;20161;-63
2023/03/16 06:52:48;;;;;;;2.05;1.10;;;17.20;99.90;;;;;;5054005;28;20521;-63
2023/03/16 06:55:13;;;;;;;2.70;1.20;;;18.30;99.90;;;;;;5054385;28;20074;-63
2023/03/16 06:57:40;;;;;;;2.45;1.10;;;17.90;99.90;;;;;;5054071;28;20160;-64
2023/03/16 07:00:08;;;;;;;3.10;1.50;;;19.20;99.90;;;;;;5054027;28;20040;-66
2023/03/16 07:02:34;;;;;;;2.55;1.33;;;18.40;99.90;;;;;;5053894;28;20028;-63
2023/03/16 07:05:01;;;;;;;3.08;1.27;;;19.50;99.90;;;;;;5053989;28;20025;-63
2023/03/16 07:07:27;;;;;;;2.65;1.40;;;19.40;99.90;;;;;;5052227;28;20048;-62
2023/03/16 07:09:53;;;;;;;2.15;1.15;;;18.60;99.90;;;;;;5053756;28;20477;-65
2023/03/16 07:12:18;;;;;;;2.15;1.20;;;20.20;99.90;;;;;;5053163;28;20048;-65
2023/03/16 07:14:44;;;;;;;2.35;1.10;;;20.70;99.90;;;;;;5053193;28;20036;-65
2023/03/16 07:17:10;;;;;;;2.72;1.20;;;20.40;99.90;;;;;;5053561;28;20033;-64
2023/03/16 07:19:36;;;;;;;2.30;1.17;;;21.30;99.90;;;;;;5053577;28;20021;-65
2023/03/16 07:22:02;;;;;;;1.92;1.17;;;21.20;99.90;;;;;;5052513;28;20255;-63
2023/03/16 07:24:27;;;;;;;4.47;1.60;;;21.90;99.90;;;;;;5053139;28;20025;-65
2023/03/16 07:26:53;;;;;;;2.83;1.55;;;23.80;99.90;;;;;;5052758;28;20028;-65
2023/03/16 07:29:19;;;;;;;3.53;1.70;;;24.10;99.90;;;;;;5053650;28;20448;-65
2023/03/16 07:31:44;;;;;;;3.65;1.50;;;22.90;99.90;;;;;;5052642;28;20032;-65
2023/03/16 07:34:10;;;;;;;2.67;1.25;;;25.00;99.90;;;;;;5053295;28;20029;-65
2023/03/16 07:36:36;;;;;;;4.18;1.30;;;23.90;99.90;;;;;;5053086;28;20021;-65
2023/03/16 07:39:03;;;;;;;2.90;1.10;;;22.60;99.90;;;;;;5053017;28;20041;-66
2023/03/16 07:41:28;;;;;;;2.47;1.33;;;24.50;99.90;;;;;;5053320;28;20029;-66
2023/03/16 07:43:54;;;;;;;2.60;1.38;;;26.20;99.90;;;;;;5053721;28;20492;-66
2023/03/16 07:46:20;;;;;;;2.97;1.42;;;26.30;99.90;;;;;;5053059;28;20016;-65
2023/03/16 07:48:45;;;;;;;2.08;1.13;;;25.30;99.90;;;;;;5053072;28;20071;-65
2023/03/16 07:51:12;;;;;;;3.22;1.30;;;25.70;99.90;;;;;;5052857;28;20093;-66
2023/03/16 07:53:39;;;;;;;3.53;1.45;;;25.50;99.90;;;;;;5053390;28;20203;-65
2023/03/16 07:56:06;;;;;;;2.20;1.20;;;25.20;99.90;;;;;;5053248;28;20049;-65
2023/03/16 07:58:32;;;;;;;2.33;1.10;;;24.50;99.90;;;;;;5052916;28;20513;-65
2023/03/16 08:00:58;;;;;;;3.55;1.80;;;27.30;99.90;;;;;;5052937;28;20037;-65
2023/03/16 08:03:25;;;;;;;2.90;1.50;;;29.10;99.90;;;;;;5052961;28;20027;-65
2023/03/16 08:05:52;;;;;;;2.45;1.50;;;28.80;99.90;;;;;;5052496;28;20405;-65
2023/03/16 08:08:18;;;;;;;1.95;1.30;;;28.80;99.90;;;;;;5052727;28;20453;-65
2023/03/16 08:10:51;;;;;;;3.00;1.50;;;29.90;99.90;;;;;;5052752;28;20049;-65
2023/03/16 08:13:17;;;;;;;2.03;1.30;;;27.40;99.90;;;;;;5052554;28;20401;-65
2023/03/16 08:16:00;;;;;;;2.85;1.30;;;28.70;99.90;;;;;;5052707;28;20440;-65
2023/03/16 08:18:29;;;;;;;2.78;1.50;;;28.40;99.90;;;;;;5052526;28;20404;-65
2023/03/16 08:20:56;;;;;;;3.15;1.20;;;26.50;99.90;;;;;;5052459;28;20055;-65
2023/03/16 08:23:24;;;;;;;1.88;1.15;;;26.10;99.90;;;;;;5052398;28;20056;-65
2023/03/16 08:25:55;;;;;;;3.92;1.55;;;30.20;99.90;;;;;;5052575;28;20060;-65
2023/03/16 08:28:20;;;;;;;2.15;1.17;;;27.40;99.90;;;;;;5052467;28;20032;-65
2023/03/16 08:30:51;;;;;;;2.35;1.13;;;28.80;99.90;;;;;;5052418;28;20021;-65
2023/03/16 08:33:19;;;;;;;2.60;1.20;;;30.40;99.50;;;;;;5052188;28;20029;-65
2023/03/16 08:35:45;;;;;;;3.22;1.10;;;29.90;99.50;;;;;;5052574;28;20028;-65
2023/03/16 08:38:12;;;;;;;3.20;1.20;;;29.10;99.30;;;;;;5051962;28;20993;-65
2023/03/16 08:40:47;;;;;;;2.63;1.13;;;29.00;99.40;;;;;;5052271;28;20021;-65
2023/03/16 08:43:14;;;;;;;2.72;1.15;;;30.40;99.10;;;;;;5052209;28;20477;-65
2023/03/16 08:45:41;;;;;;;2.90;1.00;;;30.00;99.20;;;;;;5052088;28;20025;-65
2023/03/16 08:48:11;;;;;;;3.08;1.27;;;30.60;99.90;;;;;;5051703;28;20032;-60
2023/03/16 08:50:42;;;;;;;131.38;15.70;;;28.50;99.90;;;;;;5051959;28;20029;-59
2023/03/16 08:53:08;;;;;;;68.68;8.40;;;29.80;99.90;;;;;;5052312;28;20037;-60
2023/03/16 08:55:34;;;;;;;12.77;2.00;;;28.60;99.90;;;;;;5052000;28;20036;-59
2023/03/16 08:58:00;;;;;;;7.30;1.80;;;25.80;99.90;;;;;;5051880;28;20052;-60
2023/03/16 09:00:27;;;;;;;5.15;1.15;;;25.30;99.90;;;;;;5052003;28;20021;-60
2023/03/16 09:02:54;;;;;;;38.05;5.70;;;25.00;99.90;;;;;;5051971;28;20443;-60
2023/03/16 09:05:20;;;;;;;23.45;4.00;;;27.50;99.90;;;;;;5052232;28;20024;-59
2023/03/16 09:07:46;;;;;;;6.88;2.30;;;28.00;99.90;;;;;;5052036;28;20021;-59
2023/03/16 09:10:14;;;;;;;1.92;1.20;;;28.80;99.90;;;;;;5051632;28;20113;-59
2023/03/16 09:12:41;;;;;;;8.35;1.90;;;26.90;99.90;;;;;;5051807;28;20057;-59
2023/03/16 09:15:09;;;;;;;4.20;1.90;;;27.30;99.90;;;;;;5050675;28;20378;-59
2023/03/16 09:17:35;;;;;;;6.38;1.50;;;25.60;99.90;;;;;;5051493;28;20029;-60
2023/03/16 09:20:03;;;;;;;3.75;1.30;;;27.20;99.90;;;;;;5051802;28;20036;-59
2023/03/16 09:22:29;;;;;;;5.13;1.40;;;23.40;99.90;;;;;;5051844;28;20025;-59
2023/03/16 09:24:55;;;;;;;3.17;1.30;;;24.30;99.90;;;;;;5051920;28;20451;-59
2023/03/16 09:27:21;;;;;;;3.13;1.27;;;25.90;99.90;;;;;;5052160;28;20021;-60
2023/03/16 09:29:48;;;;;;;2.00;1.02;;;27.90;99.90;;;;;;5051880;28;20029;-60
2023/03/16 09:32:14;;;;;;;3.85;1.30;;;25.30;99.90;;;;;;5051440;28;20029;-59
2023/03/16 09:34:40;;;;;;;3.45;1.20;;;26.20;99.90;;;;;;5051921;28;20021;-60
2023/03/16 09:37:06;;;;;;;2.17;1.20;;;27.50;99.90;;;;;;5051994;28;20044;-61
2023/03/16 09:39:32;;;;;;;4.47;1.23;;;29.20;99.90;;;;;;5051548;28;20070;-60
2023/03/16 09:42:17;;;;;;;4.13;1.13;;;31.50;99.90;;;;;;5051667;28;20172;-60
2023/03/16 09:45:17;;;;;;;4.13;1.40;;;30.40;99.90;;;;;;5051583;28;20021;-58
2023/03/16 09:47:47;;;;;;;4.28;1.48;;;28.50;99.90;;;;;;5029135;28;20121;-60
2023/03/16 09:50:20;;;;;;;2.92;1.45;;;27.40;99.90;;;;;;5029226;28;20489;-60
2023/03/16 09:53:15;;;;;;;5.55;1.40;;;29.20;99.90;;;;;;5029456;28;20547;-60
2023/03/16 09:55:45;;;;;;;3.80;1.45;;;29.80;99.90;;;;;;5033152;28;20045;-59
2023/03/16 09:58:20;;;;;;;6.40;1.27;;;28.20;99.90;;;;;;5033565;28;20188;-59
2023/03/16 10:01:01;;;;;;;4.72;1.10;;;26.80;99.90;;;;;;5032657;28;20032;-59
2023/03/16 10:03:33;;;;;;;2.33;1.10;;;27.20;99.90;;;;;;5033306;28;20497;-58
2023/03/16 10:06:03;;;;;;;1.83;1.20;;;25.20;99.90;;;;;;5033322;28;20025;-59
2023/03/16 10:09:01;;;;;;;2.72;1.00;;;26.20;99.90;;;;;;5033040;28;20057;-59
2023/03/16 10:11:32;;;;;;;2.20;1.17;;;27.40;99.90;;;;;;5032972;28;20040;-59
2023/03/16 10:14:27;;;;;;;2.15;1.10;;;27.70;99.90;;;;;;5032501;28;20143;-59
2023/03/16 10:16:58;;;;;;;4.32;1.80;;;25.30;99.90;;;;;;5032923;28;20080;-58
2023/03/16 10:19:41;;;;;;;3.65;1.90;;;26.00;99.90;;;;;;5016012;28;20453;-60
2023/03/16 10:22:22;;;;;;;2.00;1.20;;;26.80;99.90;;;;;;5032225;28;20613;-59
2023/03/16 10:25:08;;;;;;;2.72;1.02;;;23.50;99.90;;;;;;4995343;28;20347;-59
2023/03/16 10:27:37;;;;;;;1.95;1.17;;;25.00;99.90;;;;;;4994817;28;20050;-60
2023/03/16 10:30:17;;;;;;;2.88;1.10;;;26.00;99.90;;;;;;4995245;28;20495;-60
2023/03/16 10:32:43;;;;;;;4.25;1.10;;;23.90;99.90;;;;;;4995421;28;20121;-58
2023/03/16 10:35:21;;;;;;;1.88;1.13;;;23.40;99.90;;;;;;4995367;28;20049;-59
2023/03/16 10:37:48;;;;;;;1.42;0.90;;;23.80;99.90;;;;;;4995541;28;20128;-60
2023/03/16 10:40:15;;;;;;;2.00;1.30;;;23.90;99.90;;;;;;5008606;28;20030;-59
2023/03/16 10:42:41;;;;;;;1.73;1.10;;;23.60;99.90;;;;;;5015145;28;20100;-59
2023/03/16 10:45:24;;;;;;;3.97;1.25;;;23.30;99.90;;;;;;5014284;28;20475;-60
2023/03/16 10:47:50;;;;;;;4.00;1.13;;;23.40;99.90;;;;;;5014571;28;20076;-61
2023/03/16 10:50:22;;;;;;;4.55;1.25;;;23.60;99.90;;;;;;5014851;28;21170;-59
2023/03/16 10:52:49;;;;;;;1.87;0.83;;;22.90;99.90;;;;;;5015063;28;20109;-58
2023/03/16 10:55:31;;;;;;;3.08;1.15;;;22.50;99.90;;;;;;5014652;28;20033;-59
2023/03/16 10:57:58;;;;;;;3.95;1.10;;;23.90;99.90;;;;;;5014218;28;20061;-60
2023/03/16 11:00:35;;;;;;;2.20;1.20;;;23.30;99.90;;;;;;5014024;28;20474;-59
2023/03/16 11:03:32;;;;;;;2.47;1.00;;;22.90;99.90;;;;;;5014715;28;20461;-59
2023/03/16 11:06:02;;;;;;;1.60;0.90;;;23.30;99.90;;;;;;5013041;28;20038;-59
2023/03/16 11:08:40;;;;;;;2.33;1.00;;;23.00;99.90;;;;;;5014253;28;20022;-59
2023/03/16 11:11:15;;;;;;;2.88;1.20;;;23.10;99.90;;;;;;5014026;28;20034;-59
2023/03/16 11:13:46;;;;;;;3.38;1.15;;;22.80;99.90;;;;;;5045097;28;20450;-60
2023/03/16 11:16:45;;;;;;;3.95;1.15;;;23.00;99.90;;;;;;5053160;28;20028;-59
2023/03/16 11:19:22;;;;;;;2.92;1.48;;;23.80;99.90;;;;;;5049858;28;20493;-59
2023/03/16 11:22:08;;;;;;;3.13;1.10;;;23.60;99.90;;;;;;5053703;28;20082;-59
2023/03/16 11:24:43;;;;;;;3.10;1.13;;;23.40;99.90;;;;;;5052686;28;20021;-59
2023/03/16 11:27:43;;;;;;;3.33;1.88;;;23.80;99.90;;;;;;5052697;28;20052;-59
2023/03/16 11:30:18;;;;;;;2.60;1.30;;;24.20;99.90;;;;;;5053357;28;20044;-60
2023/03/16 11:32:53;;;;;;;2.63;1.13;;;24.10;99.90;;;;;;5053805;28;20053;-59
2023/03/16 11:35:43;;;;;;;2.42;1.10;;;23.80;99.90;;;;;;5053665;28;20032;-59
2023/03/16 11:38:25;;;;;;;2.95;1.20;;;23.90;99.90;;;;;;5053139;28;20052;-59
2023/03/16 11:41:10;;;;;;;1.90;1.20;;;23.60;99.90;;;;;;5053182;28;20040;-59
2023/03/16 11:43:50;;;;;;;2.67;1.20;;;23.40;99.90;;;;;;5052069;28;20032;-59
2023/03/16 11:47:18;;;;;;;2.40;1.05;;;23.90;99.90;;;;;;5052171;28;20485;-60
2023/03/16 11:49:44;;;;;;;1.88;1.08;;;24.20;99.90;;;;;;5010854;28;20026;-60
2023/03/16 11:52:22;;;;;;;2.10;1.00;;;23.80;99.90;;;;;;5011388;28;20026;-60
2023/03/16 11:54:50;;;;;;;1.65;1.00;;;24.20;99.90;;;;;;5011149;28;20042;-61
2023/03/16 11:57:35;;;;;;;2.35;1.10;;;23.50;99.90;;;;;;5010752;28;20026;-60
2023/03/16 12:00:44;;;;;;;2.03;1.10;;;23.50;99.90;;;;;;5011009;28;20031;-59
2023/03/16 12:03:29;;;;;;;3.03;1.08;;;24.50;99.90;;;;;;4972106;28;20038;-60
2023/03/16 12:06:01;;;;;;;2.55;1.08;;;23.80;99.90;;;;;;4972030;28;20045;-60
2023/03/16 12:08:39;;;;;;;1.90;1.05;;;23.90;99.90;;;;;;4972446;28;20039;-60
2023/03/16 12:11:06;;;;;;;3.35;1.30;;;23.70;99.90;;;;;;4971563;28;20053;-60
2023/03/16 12:13:35;;;;;;;1.58;1.10;;;23.50;99.90;;;;;;4971337;28;20061;-59
2023/03/16 12:16:14;;;;;;;3.10;1.20;;;23.50;99.90;;;;;;4971927;28;20035;-59
2023/03/16 12:19:00;;;;;;;2.80;1.05;;;23.80;99.90;;;;;;4971371;28;20047;-59
2023/03/16 12:21:44;;;;;;;3.53;1.02;;;24.00;99.90;;;;;;5006241;28;20045;-60
2023/03/16 12:24:25;;;;;;;1.45;0.77;;;24.40;99.90;;;;;;5010599;28;20034;-65
2023/03/16 12:26:52;;;;;;;1.90;0.98;;;24.40;99.90;;;;;;5010320;28;20026;-64
2023/03/16 12:30:15;;;;;;;2.85;1.05;;;24.80;99.90;;;;;;5009895;28;20026;-63
2023/03/16 12:33:04;;;;;;;2.33;1.30;;;24.80;99.90;;;;;;4990341;28;20026;-64
2023/03/16 12:36:21;;;;;;;1.95;1.20;;;24.70;99.90;;;;;;4990581;28;20043;-64
2023/03/16 12:38:59;;;;;;;1.88;1.10;;;24.70;99.90;;;;;;5030103;28;20033;-63
2023/03/16 12:41:51;;;;;;;1.42;0.98;;;25.10;99.90;;;;;;5033040;28;20026;-64
2023/03/16 12:44:30;;;;;;;1.58;0.90;;;24.20;99.90;;;;;;5009933;28;20037;-64
2023/03/16 12:47:21;;;;;;;3.90;1.20;;;24.10;99.90;;;;;;5010800;28;20172;-64
2023/03/16 12:49:48;;;;;;;1.45;1.00;;;24.60;99.90;;;;;;5010182;28;20042;-63
2023/03/16 12:52:14;;;;;;;2.05;0.90;;;24.50;99.90;;;;;;5010338;28;20157;-64
2023/03/16 12:55:06;;;;;;;2.05;1.10;;;24.60;99.90;;;;;;5009969;28;20065;-63
2023/03/16 12:57:32;;;;;;;2.55;1.52;;;25.00;99.90;;;;;;5010000;28;20034;-64
2023/03/16 13:00:00;;;;;;;2.13;1.02;;;25.40;99.90;;;;;;5010006;28;20034;-63
2023/03/16 13:02:33;;;;;;;2.03;1.05;;;25.80;99.90;;;;;;5014850;28;20033;-63
2023/03/16 13:05:02;;;;;;;;;;;25.40;99.90;;;;;;5032549;28;20064;-64
2023/03/16 13:07:30;;;;;;;2.92;0.90;;;26.00;99.90;;;;;;5032451;28;19959;-63